sensor_id;sensor_type;location;lat;lon;timestamp;pressure;altitude;pressure_sealevel;temperature;humidity
14790;BME280;7486;51.010;10.366;2023-04-24T00:00:04;97051.66;;;9.18;74.02
14790;BME280;7486;51.010;10.366;2023-04-24T00:02:49;97067.84;;;9.22;74.26
14790;BME280;7486;51.010;10.366;2023-04-24T00:05:35;97065.03;;;9.05;74.71
14790;BME280;7486;51.010;10.366;2023-04-24T00:08:20;97068.34;;;9.01;75.27
14790;BME280;7486;51.010;10.366;2023-04-24T00:11:05;97069.88;;;9.08;74.73
14790;BME280;7486;51.010;10.366;2023-04-24T00:13:51;97063.38;;;9.22;74.10
14790;BME280;7486;51.010;10.366;2023-04-24T00:16:36;97076.03;;;9.20;73.84
14790;BME280;7486;51.010;10.366;2023-04-24T00:19:22;97040.78;;;8.97;73.81
14790;BME280;7486;51.010;10.366;2023-04-24T00:22:07;97066.06;;;9.04;73.78
14790;BME280;7486;51.010;10.366;2023-04-24T00:24:53;96991.16;;;8.57;74.07
14790;BME280;7486;51.010;10.366;2023-04-24T00:27:38;97048.34;;;8.93;74.41
14790;BME280;7486;51.010;10.366;2023-04-24T00:30:24;97055.19;;;8.83;74.34
14790;BME280;7486;51.010;10.366;2023-04-24T00:33:09;97045.53;;;8.77;74.92
14790;BME280;7486;51.010;10.366;2023-04-24T00:35:55;97044.75;;;8.88;73.89
14790;BME280;7486;51.010;10.366;2023-04-24T00:38:44;97039.13;;;8.84;74.23
14790;BME280;7486;51.010;10.366;2023-04-24T00:41:29;97045.22;;;8.85;73.92
14790;BME280;7486;51.010;10.366;2023-04-24T00:44:15;97025.00;;;8.79;74.08
14790;BME280;7486;51.010;10.366;2023-04-24T00:47:00;97038.25;;;8.90;73.94
14790;BME280;7486;51.010;10.366;2023-04-24T00:49:46;97030.81;;;8.99;72.96
14790;BME280;7486;51.010;10.366;2023-04-24T00:52:31;97008.69;;;8.82;72.70
14790;BME280;7486;51.010;10.366;2023-04-24T00:55:41;97027.47;;;8.73;73.66
14790;BME280;7486;51.010;10.366;2023-04-24T00:58:28;97030.28;;;8.79;73.56
14790;BME280;7486;51.010;10.366;2023-04-24T01:01:14;97030.28;;;8.79;73.30
14790;BME280;7486;51.010;10.366;2023-04-24T01:03:59;97031.28;;;8.78;73.56
14790;BME280;7486;51.010;10.366;2023-04-24T01:06:45;97031.53;;;8.76;73.61
14790;BME280;7486;51.010;10.366;2023-04-24T01:09:30;97015.91;;;8.75;73.66
14790;BME280;7486;51.010;10.366;2023-04-24T01:12:16;97020.91;;;8.64;73.98
14790;BME280;7486;51.010;10.366;2023-04-24T01:15:03;97006.09;;;8.63;74.07
14790;BME280;7486;51.010;10.366;2023-04-24T01:17:48;97025.53;;;8.69;73.84
14790;BME280;7486;51.010;10.366;2023-04-24T01:20:34;97018.06;;;8.66;73.92
14790;BME280;7486;51.010;10.366;2023-04-24T01:23:21;97019.88;;;8.65;74.38
14790;BME280;7486;51.010;10.366;2023-04-24T01:26:09;97018.69;;;8.80;73.67
14790;BME280;7486;51.010;10.366;2023-04-24T01:28:55;97016.53;;;8.88;73.22
14790;BME280;7486;51.010;10.366;2023-04-24T01:31:43;97019.00;;;8.71;73.56
14790;BME280;7486;51.010;10.366;2023-04-24T01:34:29;97013.41;;;8.80;73.52
14790;BME280;7486;51.010;10.366;2023-04-24T01:37:14;96973.34;;;8.53;73.31
14790;BME280;7486;51.010;10.366;2023-04-24T01:40:00;96991.97;;;8.58;73.98
14790;BME280;7486;51.010;10.366;2023-04-24T01:42:46;96989.47;;;8.63;73.93
14790;BME280;7486;51.010;10.366;2023-04-24T01:45:32;96990.06;;;8.47;74.87
14790;BME280;7486;51.010;10.366;2023-04-24T01:48:17;97015.91;;;8.56;75.11
14790;BME280;7486;51.010;10.366;2023-04-24T01:51:04;97020.47;;;8.49;76.17
14790;BME280;7486;51.010;10.366;2023-04-24T01:53:55;97021.38;;;8.43;76.49
14790;BME280;7486;51.010;10.366;2023-04-24T01:56:42;97009.63;;;8.39;76.56
14790;BME280;7486;51.010;10.366;2023-04-24T01:59:28;97004.50;;;8.44;76.10
14790;BME280;7486;51.010;10.366;2023-04-24T02:02:13;97011.91;;;8.54;75.65
14790;BME280;7486;51.010;10.366;2023-04-24T02:04:59;97012.97;;;8.35;76.57
14790;BME280;7486;51.010;10.366;2023-04-24T02:07:45;97005.41;;;8.38;76.44
14790;BME280;7486;51.010;10.366;2023-04-24T02:10:31;97023.94;;;8.32;76.80
14790;BME280;7486;51.010;10.366;2023-04-24T02:13:16;96982.69;;;8.19;76.59
14790;BME280;7486;51.010;10.366;2023-04-24T02:16:01;96978.66;;;8.35;75.98
14790;BME280;7486;51.010;10.366;2023-04-24T02:18:47;97008.34;;;8.30;76.88
14790;BME280;7486;51.010;10.366;2023-04-24T02:21:33;96997.13;;;8.35;76.93
14790;BME280;7486;51.010;10.366;2023-04-24T02:24:19;96992.50;;;8.48;76.68
14790;BME280;7486;51.010;10.366;2023-04-24T02:27:04;96939.19;;;8.28;75.68
14790;BME280;7486;51.010;10.366;2023-04-24T02:29:49;96985.31;;;8.55;75.29
14790;BME280;7486;51.010;10.366;2023-04-24T02:32:35;96989.28;;;8.28;76.78
14790;BME280;7486;51.010;10.366;2023-04-24T02:35:20;96987.97;;;8.37;76.16
14790;BME280;7486;51.010;10.366;2023-04-24T02:38:05;96992.94;;;8.45;76.23
14790;BME280;7486;51.010;10.366;2023-04-24T02:40:51;96968.75;;;8.48;75.12
14790;BME280;7486;51.010;10.366;2023-04-24T02:43:37;96983.09;;;8.52;75.65
14790;BME280;7486;51.010;10.366;2023-04-24T02:46:22;96988.75;;;8.56;75.58
14790;BME280;7486;51.010;10.366;2023-04-24T02:49:08;96973.06;;;8.43;74.94
14790;BME280;7486;51.010;10.366;2023-04-24T02:51:53;96989.13;;;8.23;76.99
14790;BME280;7486;51.010;10.366;2023-04-24T02:54:39;96975.06;;;8.29;76.32
14790;BME280;7486;51.010;10.366;2023-04-24T02:57:24;96925.09;;;8.16;75.63
14790;BME280;7486;51.010;10.366;2023-04-24T03:00:10;96967.00;;;8.42;75.96
14790;BME280;7486;51.010;10.366;2023-04-24T03:02:55;96974.84;;;8.31;76.83
14790;BME280;7486;51.010;10.366;2023-04-24T03:05:41;96976.78;;;8.53;76.11
14790;BME280;7486;51.010;10.366;2023-04-24T03:08:26;96969.91;;;8.52;75.68
14790;BME280;7486;51.010;10.366;2023-04-24T03:11:12;96941.41;;;8.43;75.17
14790;BME280;7486;51.010;10.366;2023-04-24T03:13:59;96959.75;;;8.67;74.74
14790;BME280;7486;51.010;10.366;2023-04-24T03:16:44;96957.50;;;8.83;74.27
14790;BME280;7486;51.010;10.366;2023-04-24T03:19:30;96963.09;;;8.75;74.28
14790;BME280;7486;51.010;10.366;2023-04-24T03:22:21;96962.84;;;8.64;75.32
14790;BME280;7486;51.010;10.366;2023-04-24T03:25:07;96953.75;;;8.60;75.31
14790;BME280;7486;51.010;10.366;2023-04-24T03:27:53;96935.19;;;8.37;75.05
14790;BME280;7486;51.010;10.366;2023-04-24T03:31:05;96958.03;;;8.43;75.94
14790;BME280;7486;51.010;10.366;2023-04-24T03:33:53;96942.94;;;8.50;75.71
14790;BME280;7486;51.010;10.366;2023-04-24T03:36:39;96953.03;;;8.53;75.30
14790;BME280;7486;51.010;10.366;2023-04-24T03:39:25;96953.47;;;8.50;76.44
14790;BME280;7486;51.010;10.366;2023-04-24T03:42:13;96922.72;;;8.44;75.61
14790;BME280;7486;51.010;10.366;2023-04-24T03:45:08;96950.22;;;8.66;75.47
14790;BME280;7486;51.010;10.366;2023-04-24T03:47:56;96949.53;;;8.59;75.70
14790;BME280;7486;51.010;10.366;2023-04-24T03:50:42;96946.44;;;8.62;76.04
14790;BME280;7486;51.010;10.366;2023-04-24T03:53:28;96947.44;;;8.61;75.73
14790;BME280;7486;51.010;10.366;2023-04-24T03:56:14;96953.84;;;8.54;75.87
14790;BME280;7486;51.010;10.366;2023-04-24T03:59:00;96957.16;;;8.49;76.02
14790;BME280;7486;51.010;10.366;2023-04-24T04:01:46;96956.59;;;8.29;76.67
14790;BME280;7486;51.010;10.366;2023-04-24T04:04:33;96959.94;;;8.36;77.00
14790;BME280;7486;51.010;10.366;2023-04-24T04:07:19;96965.84;;;8.38;76.91
14790;BME280;7486;51.010;10.366;2023-04-24T04:10:05;96967.19;;;8.11;77.18
14790;BME280;7486;51.010;10.366;2023-04-24T04:12:52;96958.50;;;8.04;77.98
14790;BME280;7486;51.010;10.366;2023-04-24T04:15:37;96945.47;;;8.09;77.69
14790;BME280;7486;51.010;10.366;2023-04-24T04:18:23;96954.59;;;8.43;76.91
14790;BME280;7486;51.010;10.366;2023-04-24T04:21:08;96956.53;;;8.65;76.27
14790;BME280;7486;51.010;10.366;2023-04-24T04:23:53;96958.13;;;8.66;75.84
14790;BME280;7486;51.010;10.366;2023-04-24T04:26:46;96956.28;;;8.55;76.29
14790;BME280;7486;51.010;10.366;2023-04-24T04:29:39;96958.03;;;8.43;76.74
14790;BME280;7486;51.010;10.366;2023-04-24T04:32:27;96950.66;;;8.34;76.48
14790;BME280;7486;51.010;10.366;2023-04-24T04:35:12;96921.66;;;8.15;76.29
14790;BME280;7486;51.010;10.366;2023-04-24T04:37:58;96952.59;;;8.56;75.30
14790;BME280;7486;51.010;10.366;2023-04-24T04:41:00;96954.63;;;8.73;74.88
14790;BME280;7486;51.010;10.366;2023-04-24T04:43:49;96878.97;;;8.25;74.42
14790;BME280;7486;51.010;10.366;2023-04-24T04:46:35;96959.75;;;8.67;73.83
14790;BME280;7486;51.010;10.366;2023-04-24T04:49:29;96949.59;;;8.53;74.43
14790;BME280;7486;51.010;10.366;2023-04-24T04:52:14;96946.78;;;8.66;74.15
14790;BME280;7486;51.010;10.366;2023-04-24T04:54:59;96912.03;;;8.39;72.89
14790;BME280;7486;51.010;10.366;2023-04-24T04:58:02;96967.69;;;8.49;74.25
14790;BME280;7486;51.010;10.366;2023-04-24T05:00:47;96960.34;;;8.69;73.94
14790;BME280;7486;51.010;10.366;2023-04-24T05:03:39;96939.03;;;8.53;72.85
14790;BME280;7486;51.010;10.366;2023-04-24T05:06:28;96963.06;;;8.63;73.17
14790;BME280;7486;51.010;10.366;2023-04-24T05:09:13;96947.09;;;8.58;73.44
14790;BME280;7486;51.010;10.366;2023-04-24T05:12:09;96963.16;;;8.86;72.90
14790;BME280;7486;51.010;10.366;2023-04-24T05:15:05;96912.03;;;8.39;73.37
14790;BME280;7486;51.010;10.366;2023-04-24T05:17:51;96973.78;;;8.50;73.90
14790;BME280;7486;51.010;10.366;2023-04-24T05:20:37;96980.03;;;8.37;74.56
14790;BME280;7486;51.010;10.366;2023-04-24T05:23:22;96996.25;;;8.41;75.70
14790;BME280;7486;51.010;10.366;2023-04-24T05:26:10;97003.50;;;8.27;77.27
14790;BME280;7486;51.010;10.366;2023-04-24T05:28:56;97012.50;;;8.19;77.94
14790;BME280;7486;51.010;10.366;2023-04-24T05:31:41;97008.00;;;8.02;79.54
14790;BME280;7486;51.010;10.366;2023-04-24T05:34:26;97008.94;;;8.14;79.18
14790;BME280;7486;51.010;10.366;2023-04-24T05:37:14;97009.88;;;8.19;79.13
14790;BME280;7486;51.010;10.366;2023-04-24T05:39:59;97020.06;;;8.16;77.71
14790;BME280;7486;51.010;10.366;2023-04-24T05:42:44;96949.69;;;7.55;77.80
14790;BME280;7486;51.010;10.366;2023-04-24T05:45:29;97013.19;;;8.08;76.53
14790;BME280;7486;51.010;10.366;2023-04-24T05:48:15;97015.66;;;8.10;74.69
14790;BME280;7486;51.010;10.366;2023-04-24T05:51:01;97027.06;;;8.04;75.74
14790;BME280;7486;51.010;10.366;2023-04-24T05:53:46;97017.66;;;8.14;74.49
14790;BME280;7486;51.010;10.366;2023-04-24T05:56:31;97027.97;;;8.34;74.10
14790;BME280;7486;51.010;10.366;2023-04-24T05:59:19;97000.50;;;8.24;74.40
14790;BME280;7486;51.010;10.366;2023-04-24T06:02:05;96993.34;;;8.06;75.19
14790;BME280;7486;51.010;10.366;2023-04-24T06:04:51;97024.41;;;8.29;75.46
14790;BME280;7486;51.010;10.366;2023-04-24T06:07:36;97022.13;;;8.14;76.20
14790;BME280;7486;51.010;10.366;2023-04-24T06:10:24;97027.38;;;8.32;75.21
14790;BME280;7486;51.010;10.366;2023-04-24T06:13:09;97009.50;;;8.34;74.10
14790;BME280;7486;51.010;10.366;2023-04-24T06:15:58;97030.81;;;8.33;73.85
14790;BME280;7486;51.010;10.366;2023-04-24T06:18:51;97029.72;;;8.40;73.31
14790;BME280;7486;51.010;10.366;2023-04-24T06:21:37;97033.25;;;8.34;72.89
14790;BME280;7486;51.010;10.366;2023-04-24T06:24:27;97035.88;;;8.52;72.05
14790;BME280;7486;51.010;10.366;2023-04-24T06:27:12;97027.97;;;8.52;70.34
14790;BME280;7486;51.010;10.366;2023-04-24T06:30:00;97028.25;;;8.26;69.00
14790;BME280;7486;51.010;10.366;2023-04-24T06:32:45;97030.97;;;7.95;69.61
14790;BME280;7486;51.010;10.366;2023-04-24T06:35:33;96983.19;;;7.48;69.82
14790;BME280;7486;51.010;10.366;2023-04-24T06:38:18;97036.13;;;7.90;68.97
14790;BME280;7486;51.010;10.366;2023-04-24T06:41:03;97038.13;;;7.94;69.92
14790;BME280;7486;51.010;10.366;2023-04-24T06:43:49;97030.78;;;7.96;70.04
14790;BME280;7486;51.010;10.366;2023-04-24T06:46:34;97031.28;;;8.11;68.07
14790;BME280;7486;51.010;10.366;2023-04-24T06:49:20;97037.56;;;8.10;67.51
14790;BME280;7486;51.010;10.366;2023-04-24T06:52:05;97045.69;;;8.09;67.65
14790;BME280;7486;51.010;10.366;2023-04-24T06:54:52;97038.38;;;8.11;66.77
14790;BME280;7486;51.010;10.366;2023-04-24T06:57:39;97047.81;;;8.18;66.53
14790;BME280;7486;51.010;10.366;2023-04-24T07:00:25;97052.88;;;8.20;65.44
14790;BME280;7486;51.010;10.366;2023-04-24T07:03:10;97052.16;;;8.31;65.62
14790;BME280;7486;51.010;10.366;2023-04-24T07:05:57;97051.13;;;8.32;65.00
14790;BME280;7486;51.010;10.366;2023-04-24T07:08:42;97041.75;;;8.18;60.93
14790;BME280;7486;51.010;10.366;2023-04-24T07:11:27;97049.75;;;8.11;61.34
14790;BME280;7486;51.010;10.366;2023-04-24T07:14:13;97041.34;;;7.96;59.85
14790;BME280;7486;51.010;10.366;2023-04-24T07:16:59;97054.97;;;7.68;60.42
14790;BME280;7486;51.010;10.366;2023-04-24T07:19:45;97050.25;;;7.77;61.05
14790;BME280;7486;51.010;10.366;2023-04-24T07:22:32;97004.84;;;7.50;61.08
14790;BME280;7486;51.010;10.366;2023-04-24T07:25:17;97035.44;;;7.76;60.19
14790;BME280;7486;51.010;10.366;2023-04-24T07:28:03;97051.06;;;7.96;61.24
14790;BME280;7486;51.010;10.366;2023-04-24T07:30:48;97052.75;;;8.08;61.27
14790;BME280;7486;51.010;10.366;2023-04-24T07:33:33;97054.28;;;8.41;60.42
14790;BME280;7486;51.010;10.366;2023-04-24T07:36:19;97051.75;;;8.64;58.85
14790;BME280;7486;51.010;10.366;2023-04-24T07:39:05;96988.94;;;8.73;58.45
14790;BME280;7486;51.010;10.366;2023-04-24T07:41:50;97060.63;;;9.17;57.18
14790;BME280;7486;51.010;10.366;2023-04-24T07:44:35;97052.94;;;9.28;56.20
14790;BME280;7486;51.010;10.366;2023-04-24T07:47:21;97067.09;;;9.33;55.20
14790;BME280;7486;51.010;10.366;2023-04-24T07:50:06;97064.44;;;9.33;55.06
14790;BME280;7486;51.010;10.366;2023-04-24T07:52:52;97059.91;;;9.40;57.68
14790;BME280;7486;51.010;10.366;2023-04-24T07:55:37;97053.31;;;9.73;55.41
14790;BME280;7486;51.010;10.366;2023-04-24T07:58:23;97049.25;;;10.05;53.96
14790;BME280;7486;51.010;10.366;2023-04-24T08:01:08;97059.38;;;10.54;55.31
14790;BME280;7486;51.010;10.366;2023-04-24T08:03:54;97063.19;;;10.87;54.87
14790;BME280;7486;51.010;10.366;2023-04-24T08:06:40;97046.00;;;11.17;52.18
14790;BME280;7486;51.010;10.366;2023-04-24T08:09:25;97064.25;;;11.31;49.28
14790;BME280;7486;51.010;10.366;2023-04-24T08:12:12;97060.16;;;11.23;48.76
14790;BME280;7486;51.010;10.366;2023-04-24T08:14:57;97069.81;;;11.29;49.60
14790;BME280;7486;51.010;10.366;2023-04-24T08:17:43;97069.25;;;10.99;48.29
14790;BME280;7486;51.010;10.366;2023-04-24T08:20:28;97070.50;;;10.68;50.09
14790;BME280;7486;51.010;10.366;2023-04-24T08:23:14;97029.91;;;10.39;48.99
14790;BME280;7486;51.010;10.366;2023-04-24T08:25:59;97072.03;;;10.41;49.10
14790;BME280;7486;51.010;10.366;2023-04-24T08:28:44;97069.91;;;10.66;49.50
14790;BME280;7486;51.010;10.366;2023-04-24T08:31:30;97082.94;;;10.67;49.01
14790;BME280;7486;51.010;10.366;2023-04-24T08:34:15;97086.63;;;10.66;50.25
14790;BME280;7486;51.010;10.366;2023-04-24T08:37:00;97089.00;;;10.80;47.70
14790;BME280;7486;51.010;10.366;2023-04-24T08:39:46;97078.34;;;10.63;47.56
14790;BME280;7486;51.010;10.366;2023-04-24T08:42:33;97088.81;;;10.35;48.27
14790;BME280;7486;51.010;10.366;2023-04-24T08:45:20;97096.31;;;10.26;48.60
14790;BME280;7486;51.010;10.366;2023-04-24T08:48:07;97034.03;;;9.42;49.08
14790;BME280;7486;51.010;10.366;2023-04-24T08:51:08;97067.09;;;9.75;48.20
14790;BME280;7486;51.010;10.366;2023-04-24T08:53:54;97048.09;;;9.54;48.50
14790;BME280;7486;51.010;10.366;2023-04-24T08:56:40;97097.19;;;9.73;48.98
14790;BME280;7486;51.010;10.366;2023-04-24T08:59:29;97065.69;;;9.60;49.52
14790;BME280;7486;51.010;10.366;2023-04-24T09:02:16;97094.72;;;9.37;51.24
14790;BME280;7486;51.010;10.366;2023-04-24T09:05:02;97097.50;;;9.24;51.41
14790;BME280;7486;51.010;10.366;2023-04-24T09:07:53;97112.56;;;9.23;51.45
14790;BME280;7486;51.010;10.366;2023-04-24T09:10:39;97118.84;;;9.41;50.95
14790;BME280;7486;51.010;10.366;2023-04-24T09:13:25;97123.97;;;9.36;53.48
14790;BME280;7486;51.010;10.366;2023-04-24T09:16:12;97065.34;;;9.27;51.91
14790;BME280;7486;51.010;10.366;2023-04-24T09:18:58;97121.91;;;9.67;49.81
14790;BME280;7486;51.010;10.366;2023-04-24T09:21:45;97116.25;;;9.64;49.21
14790;BME280;7486;51.010;10.366;2023-04-24T09:24:31;97118.94;;;9.34;49.94
14790;BME280;7486;51.010;10.366;2023-04-24T09:27:17;97133.03;;;9.69;49.66
14790;BME280;7486;51.010;10.366;2023-04-24T09:30:03;97120.44;;;9.71;50.28
14790;BME280;7486;51.010;10.366;2023-04-24T09:32:48;97125.19;;;9.93;49.31
14790;BME280;7486;51.010;10.366;2023-04-24T09:35:34;97128.63;;;10.05;49.07
14790;BME280;7486;51.010;10.366;2023-04-24T09:38:30;97124.00;;;10.00;51.19
14790;BME280;7486;51.010;10.366;2023-04-24T09:41:16;97139.69;;;10.13;49.07
14790;BME280;7486;51.010;10.366;2023-04-24T09:44:15;97139.47;;;10.03;48.35
14790;BME280;7486;51.010;10.366;2023-04-24T09:47:01;97145.19;;;9.89;49.18
14790;BME280;7486;51.010;10.366;2023-04-24T09:49:46;97139.50;;;9.73;49.43
14790;BME280;7486;51.010;10.366;2023-04-24T09:52:31;97138.34;;;9.69;49.86
14790;BME280;7486;51.010;10.366;2023-04-24T09:55:19;97140.09;;;9.87;50.15
14790;BME280;7486;51.010;10.366;2023-04-24T09:58:07;97145.38;;;9.87;49.77
14790;BME280;7486;51.010;10.366;2023-04-24T10:00:54;97143.00;;;9.86;50.18
14790;BME280;7486;51.010;10.366;2023-04-24T10:03:42;97103.00;;;9.52;50.46
14790;BME280;7486;51.010;10.366;2023-04-24T10:06:34;97151.50;;;9.88;50.37
14790;BME280;7486;51.010;10.366;2023-04-24T10:09:24;97160.75;;;9.67;51.61
14790;BME280;7486;51.010;10.366;2023-04-24T10:12:10;97158.94;;;9.19;52.63
14790;BME280;7486;51.010;10.366;2023-04-24T10:14:57;97160.59;;;9.32;53.89
14790;BME280;7486;51.010;10.366;2023-04-24T10:17:45;97157.72;;;9.52;52.26
14790;BME280;7486;51.010;10.366;2023-04-24T10:20:30;97165.75;;;9.27;52.77
14790;BME280;7486;51.010;10.366;2023-04-24T10:23:16;97152.19;;;9.05;52.45
14790;BME280;7486;51.010;10.366;2023-04-24T10:26:01;97164.47;;;8.82;53.51
14790;BME280;7486;51.010;10.366;2023-04-24T10:28:49;97162.63;;;8.82;53.95
14790;BME280;7486;51.010;10.366;2023-04-24T10:31:36;97160.72;;;8.71;54.50
14790;BME280;7486;51.010;10.366;2023-04-24T10:34:22;97164.00;;;8.66;54.74
14790;BME280;7486;51.010;10.366;2023-04-24T10:37:08;97162.84;;;8.81;54.81
14790;BME280;7486;51.010;10.366;2023-04-24T10:39:55;97144.50;;;8.67;54.23
14790;BME280;7486;51.010;10.366;2023-04-24T10:42:41;97163.78;;;9.04;54.11
14790;BME280;7486;51.010;10.366;2023-04-24T10:45:26;97127.63;;;9.05;53.16
14790;BME280;7486;51.010;10.366;2023-04-24T10:48:14;97158.75;;;9.33;53.09
14790;BME280;7486;51.010;10.366;2023-04-24T10:51:01;97165.66;;;9.04;54.75
14790;BME280;7486;51.010;10.366;2023-04-24T10:53:46;97174.94;;;9.06;53.73
14790;BME280;7486;51.010;10.366;2023-04-24T10:56:32;97181.63;;;9.09;52.53
14790;BME280;7486;51.010;10.366;2023-04-24T10:59:27;97183.78;;;9.00;53.37
14790;BME280;7486;51.010;10.366;2023-04-24T11:02:36;97101.78;;;8.59;52.80
14790;BME280;7486;51.010;10.366;2023-04-24T11:05:22;97137.84;;;8.83;54.15
14790;BME280;7486;51.010;10.366;2023-04-24T11:08:14;97178.25;;;9.02;54.69
14790;BME280;7486;51.010;10.366;2023-04-24T11:11:14;97150.97;;;8.90;54.68
14790;BME280;7486;51.010;10.366;2023-04-24T11:14:02;97182.19;;;9.11;54.96
14790;BME280;7486;51.010;10.366;2023-04-24T11:16:52;97157.22;;;9.25;55.45
14790;BME280;7486;51.010;10.366;2023-04-24T11:19:39;97082.72;;;9.05;55.20
14790;BME280;7486;51.010;10.366;2023-04-24T11:22:24;97162.81;;;9.65;54.65
14790;BME280;7486;51.010;10.366;2023-04-24T11:25:10;97149.75;;;9.93;54.07
14790;BME280;7486;51.010;10.366;2023-04-24T11:28:03;97154.31;;;10.16;54.64
14790;BME280;7486;51.010;10.366;2023-04-24T11:30:49;97145.00;;;10.48;54.06
14790;BME280;7486;51.010;10.366;2023-04-24T11:33:34;97076.03;;;10.43;53.18
14790;BME280;7486;51.010;10.366;2023-04-24T11:36:20;97147.66;;;11.11;53.58
14790;BME280;7486;51.010;10.366;2023-04-24T11:39:06;97144.50;;;11.26;51.15
14790;BME280;7486;51.010;10.366;2023-04-24T11:41:51;97102.16;;;10.63;52.24
14790;BME280;7486;51.010;10.366;2023-04-24T11:44:37;97154.06;;;10.76;50.36
14790;BME280;7486;51.010;10.366;2023-04-24T11:47:29;97147.97;;;10.52;50.24
14790;BME280;7486;51.010;10.366;2023-04-24T11:50:20;97180.63;;;9.69;57.99
14790;BME280;7486;51.010;10.366;2023-04-24T11:53:06;97197.63;;;8.96;62.20
14790;BME280;7486;51.010;10.366;2023-04-24T11:55:52;97202.75;;;8.91;67.37
14790;BME280;7486;51.010;10.366;2023-04-24T11:58:38;97199.94;;;9.22;71.68
14790;BME280;7486;51.010;10.366;2023-04-24T12:01:23;97202.44;;;9.53;71.22
14790;BME280;7486;51.010;10.366;2023-04-24T12:04:09;97198.84;;;9.78;70.34
14790;BME280;7486;51.010;10.366;2023-04-24T12:07:04;97191.56;;;10.14;67.86
14790;BME280;7486;51.010;10.366;2023-04-24T12:09:57;97194.81;;;10.40;66.44
14790;BME280;7486;51.010;10.366;2023-04-24T12:12:45;97134.84;;;10.10;63.95
14790;BME280;7486;51.010;10.366;2023-04-24T12:15:32;97198.31;;;10.63;64.05
14790;BME280;7486;51.010;10.366;2023-04-24T12:18:18;97119.19;;;10.20;58.75
14790;BME280;7486;51.010;10.366;2023-04-24T12:21:19;97199.78;;;10.48;63.72
14790;BME280;7486;51.010;10.366;2023-04-24T12:24:07;97184.09;;;10.35;59.35
14790;BME280;7486;51.010;10.366;2023-04-24T12:26:52;97201.00;;;10.22;58.10
14790;BME280;7486;51.010;10.366;2023-04-24T12:29:51;97212.06;;;9.48;61.59
14790;BME280;7486;51.010;10.366;2023-04-24T12:32:41;97216.78;;;9.09;64.04
14790;BME280;7486;51.010;10.366;2023-04-24T12:35:28;97217.91;;;8.77;65.82
14790;BME280;7486;51.010;10.366;2023-04-24T12:38:15;97211.50;;;9.09;68.66
14790;BME280;7486;51.010;10.366;2023-04-24T12:43:52;97227.97;;;9.59;66.82
14790;BME280;7486;51.010;10.366;2023-04-24T12:46:37;97197.75;;;9.55;63.93
14790;BME280;7486;51.010;10.366;2023-04-24T12:49:23;97216.31;;;9.79;61.93
14790;BME280;7486;51.010;10.366;2023-04-24T12:52:08;97217.84;;;9.86;59.41
14790;BME280;7486;51.010;10.366;2023-04-24T12:54:55;97220.06;;;10.01;56.99
14790;BME280;7486;51.010;10.366;2023-04-24T12:57:40;97196.00;;;9.91;57.13
14790;BME280;7486;51.010;10.366;2023-04-24T13:00:26;97228.19;;;9.88;56.82
14790;BME280;7486;51.010;10.366;2023-04-24T13:03:12;97237.22;;;9.68;56.60
14790;BME280;7486;51.010;10.366;2023-04-24T13:05:58;97227.84;;;9.54;57.74
14790;BME280;7486;51.010;10.366;2023-04-24T13:08:44;97252.94;;;9.63;58.78
14790;BME280;7486;51.010;10.366;2023-04-24T13:11:29;97255.38;;;9.77;59.16
14790;BME280;7486;51.010;10.366;2023-04-24T13:14:15;97249.00;;;9.54;58.94
14790;BME280;7486;51.010;10.366;2023-04-24T13:17:00;97254.47;;;9.53;58.88
14790;BME280;7486;51.010;10.366;2023-04-24T13:19:50;97265.88;;;9.35;58.21
14790;BME280;7486;51.010;10.366;2023-04-24T13:22:35;97269.97;;;9.31;56.79
14790;BME280;7486;51.010;10.366;2023-04-24T13:25:20;97260.44;;;9.30;55.14
14790;BME280;7486;51.010;10.366;2023-04-24T13:28:06;97274.81;;;9.16;56.76
14790;BME280;7486;51.010;10.366;2023-04-24T13:30:51;97279.34;;;9.09;54.39
14790;BME280;7486;51.010;10.366;2023-04-24T13:33:36;97160.50;;;8.05;55.14
14790;BME280;7486;51.010;10.366;2023-04-24T13:36:22;97292.91;;;8.94;54.74
14790;BME280;7486;51.010;10.366;2023-04-24T13:39:07;97277.84;;;8.77;55.80
14790;BME280;7486;51.010;10.366;2023-04-24T13:41:53;97296.34;;;8.95;54.90
14790;BME280;7486;51.010;10.366;2023-04-24T13:44:39;97284.66;;;8.84;55.16
14790;BME280;7486;51.010;10.366;2023-04-24T13:47:24;97277.81;;;8.58;56.06
14790;BME280;7486;51.010;10.366;2023-04-24T13:50:10;97301.19;;;8.80;56.96
14790;BME280;7486;51.010;10.366;2023-04-24T13:52:55;97299.63;;;8.72;56.11
14790;BME280;7486;51.010;10.366;2023-04-24T13:55:41;97305.13;;;8.39;57.79
14790;BME280;7486;51.010;10.366;2023-04-24T13:58:26;97294.13;;;8.49;57.68
14790;BME280;7486;51.010;10.366;2023-04-24T14:01:12;97301.06;;;8.43;58.57
14790;BME280;7486;51.010;10.366;2023-04-24T14:03:58;97303.91;;;8.66;57.11
14790;BME280;7486;51.010;10.366;2023-04-24T14:06:44;97300.00;;;8.76;57.42
14790;BME280;7486;51.010;10.366;2023-04-24T14:09:30;97291.78;;;8.84;56.68
14790;BME280;7486;51.010;10.366;2023-04-24T14:12:16;97290.00;;;9.02;55.80
14790;BME280;7486;51.010;10.366;2023-04-24T14:15:01;97295.84;;;9.04;55.72
14790;BME280;7486;51.010;10.366;2023-04-24T14:17:48;97281.31;;;8.95;55.78
14790;BME280;7486;51.010;10.366;2023-04-24T14:20:33;97286.53;;;9.02;56.14
14790;BME280;7486;51.010;10.366;2023-04-24T14:23:18;97296.00;;;9.09;55.25
14790;BME280;7486;51.010;10.366;2023-04-24T14:26:03;97295.88;;;9.22;55.43
14790;BME280;7486;51.010;10.366;2023-04-24T14:28:48;97301.03;;;9.36;56.02
14790;BME280;7486;51.010;10.366;2023-04-24T14:31:35;97298.22;;;9.31;55.18
14790;BME280;7486;51.010;10.366;2023-04-24T14:34:20;97304.44;;;9.18;55.79
14790;BME280;7486;51.010;10.366;2023-04-24T14:37:07;97308.84;;;9.06;56.27
14790;BME280;7486;51.010;10.366;2023-04-24T14:39:53;97298.38;;;9.17;55.04
14790;BME280;7486;51.010;10.366;2023-04-24T14:42:58;97307.97;;;9.12;55.53
14790;BME280;7486;51.010;10.366;2023-04-24T14:45:44;97311.53;;;9.24;58.14
14790;BME280;7486;51.010;10.366;2023-04-24T14:48:29;97314.84;;;9.38;56.73
14790;BME280;7486;51.010;10.366;2023-04-24T14:51:14;97292.66;;;9.20;55.09
14790;BME280;7486;51.010;10.366;2023-04-24T14:54:00;97317.63;;;9.43;56.17
14790;BME280;7486;51.010;10.366;2023-04-24T14:56:46;97319.59;;;9.29;54.84